Time;durP1;ratioP1;P1;durP2;ratioP2;P2;SDS_P1;SDS_P2;PMS_P1;PMS_P2;Temp;Humidity;BMP_temperature;BMP_pressure;BME280_temperature;BME280_humidity;BME280_pressure;Samples;Min_cycle;Max_cycle;Signal;HPM_P1;HPM_P2
2021/12/08 00:01:46;;;;;;;;;;;1.30;99.90;;;;;;5072292;28;19913;-87
2021/12/08 00:04:14;;;;;;;;;;;1.40;99.90;;;;;;5074502;28;19915;-88
2021/12/08 00:06:41;;;;;;;;;;;1.30;99.90;;;;;;5092423;28;19921;-88
2021/12/08 00:09:26;;;;;;;;;;;1.30;99.90;;;;;;5074738;28;19922;-87
2021/12/08 00:14:48;;;;;;;;;;;1.40;99.90;;;;;;5495776;22;19976;-87
2021/12/08 00:17:15;;;;;;;;;;;1.40;99.90;;;;;;5071684;28;19912;-87
2021/12/08 00:19:42;;;;;;;;;;;1.30;99.90;;;;;;5076398;28;19945;-87
2021/12/08 00:22:10;;;;;;;;;;;1.40;99.90;;;;;;5077339;28;19912;-85
2021/12/08 00:24:38;;;;;;;;;;;1.40;99.90;;;;;;5060016;28;19909;-88
2021/12/08 00:27:05;;;;;;;;;;;1.40;99.90;;;;;;5059454;28;19921;-85
2021/12/08 00:29:33;;;;;;;;;;;1.30;99.90;;;;;;5062698;28;19943;-87
2021/12/08 00:32:01;;;;;;;;;;;1.30;99.90;;;;;;5056209;28;19924;-86
2021/12/08 00:34:30;;;;;;;;;;;1.30;99.90;;;;;;5075145;28;19908;-85
2021/12/08 00:37:00;;;;;;;;;;;1.30;99.90;;;;;;5073706;28;19919;-87
2021/12/08 00:39:28;;;;;;;;;;;1.30;99.90;;;;;;5057234;28;19921;-85
2021/12/08 00:41:56;;;;;;;;;;;1.30;99.90;;;;;;5059319;28;19933;-85
2021/12/08 00:44:23;;;;;;;;;;;1.30;99.90;;;;;;5074782;28;19923;-88
2021/12/08 00:46:51;;;;;;;;;;;1.30;99.90;;;;;;5046973;28;19936;-85
2021/12/08 00:49:20;;;;;;;;;;;1.30;99.90;;;;;;5058302;28;19920;-87
2021/12/08 00:51:48;;;;;;;;;;;1.30;99.90;;;;;;5070873;28;19913;-87
2021/12/08 00:54:15;;;;;;;;;;;1.30;99.90;;;;;;5059379;28;19909;-87
2021/12/08 00:59:32;;;;;;;;;;;1.30;99.90;;;;;;5528807;22;19960;-86
2021/12/08 01:02:02;;;;;;;;;;;1.30;99.90;;;;;;5090433;28;19916;-87
2021/12/08 01:04:32;;;;;;;;;;;1.30;99.90;;;;;;5076814;28;19925;-86
2021/12/08 01:06:59;;;;;;;;;;;1.30;99.90;;;;;;5092555;28;19951;-87
2021/12/08 01:09:27;;;;;;;;;;;1.30;99.90;;;;;;5075558;28;19909;-84
2021/12/08 01:11:55;;;;;;;;;;;1.30;99.90;;;;;;5078380;28;19913;-86
2021/12/08 01:14:23;;;;;;;;;;;1.30;99.90;;;;;;5072586;28;19940;-86
2021/12/08 01:16:52;;;;;;;;;;;1.30;99.90;;;;;;5073853;28;20004;-87
2021/12/08 01:19:19;;;;;;;;;;;1.30;99.90;;;;;;5068733;28;19909;-85
2021/12/08 01:21:48;;;;;;;;;;;1.30;99.90;;;;;;5074093;28;19912;-85
2021/12/08 01:24:15;;;;;;;;;;;1.30;99.90;;;;;;5075675;28;19913;-85
2021/12/08 01:26:42;;;;;;;;;;;1.30;99.90;;;;;;5069323;28;19940;-86
2021/12/08 01:29:10;;;;;;;;;;;1.30;99.90;;;;;;5074093;28;20108;-85
2021/12/08 01:31:41;;;;;;;;;;;1.20;99.90;;;;;;5070826;28;19933;-87
2021/12/08 01:34:09;;;;;;;;;;;1.30;99.90;;;;;;5080681;28;19909;-85
2021/12/08 01:36:37;;;;;;;;;;;1.30;99.90;;;;;;5070514;28;20006;-87
2021/12/08 01:39:06;;;;;;;;;;;1.30;99.90;;;;;;5074802;28;19931;-85
2021/12/08 01:41:33;;;;;;;;;;;1.30;99.90;;;;;;5075686;28;19913;-87
2021/12/08 01:58:51;;;;;;;;;;;1.30;99.90;;;;;;5106265;28;19976;-84
2021/12/08 02:01:20;;;;;;;;;;;1.30;99.90;;;;;;5112736;28;19908;-84
2021/12/08 02:03:49;;;;;;;;;;;1.30;99.90;;;;;;5100540;28;19934;-83
2021/12/08 02:11:31;;;;;;;;;;;1.30;99.90;;;;;;5085273;28;19968;-86
2021/12/08 02:14:01;;;;;;;;;;;1.30;99.90;;;;;;5079695;28;19913;-86
2021/12/08 02:16:29;;;;;;;;;;;1.30;99.90;;;;;;5075290;28;19912;-86
2021/12/08 02:18:57;;;;;;;;;;;1.30;99.90;;;;;;5072791;28;19913;-86
2021/12/08 02:21:28;;;;;;;;;;;1.30;99.90;;;;;;5074988;28;19943;-86
2021/12/08 02:23:56;;;;;;;;;;;1.30;99.90;;;;;;5095117;28;19908;-84
2021/12/08 02:26:24;;;;;;;;;;;1.30;99.90;;;;;;5075718;28;19916;-87
2021/12/08 02:28:52;;;;;;;;;;;1.30;99.90;;;;;;5075158;28;19913;-86
2021/12/08 02:31:29;;;;;;;;;;;1.30;99.90;;;;;;5072218;28;19928;-86
2021/12/08 02:49:39;;;;;;;;;;;1.40;99.90;;;;;;5080307;28;19954;-84
2021/12/08 02:52:13;;;;;;;;;;;1.40;99.90;;;;;;5078778;28;19909;-84
2021/12/08 02:54:46;;;;;;;;;;;1.40;99.90;;;;;;5075417;28;19923;-84
2021/12/08 03:13:08;;;;;;;;;;;1.40;99.90;;;;;;5477560;22;19912;-85
2021/12/08 03:15:37;;;;;;;;;;;1.40;99.90;;;;;;5067186;28;19913;-86
2021/12/08 03:18:07;;;;;;;;;;;1.40;99.90;;;;;;5087134;28;19931;-86
2021/12/08 03:20:40;;;;;;;;;;;1.40;99.90;;;;;;5099183;28;19933;-85
2021/12/08 03:23:09;;;;;;;;;;;1.40;99.90;;;;;;5092019;28;19912;-85
2021/12/08 03:25:42;;;;;;;;;;;1.40;99.90;;;;;;5071585;28;19913;-87
2021/12/08 03:28:17;;;;;;;;;;;1.40;99.90;;;;;;5065257;28;19908;-86
2021/12/08 03:30:57;;;;;;;;;;;1.40;99.90;;;;;;5070761;28;19932;-86
2021/12/08 03:33:24;;;;;;;;;;;1.40;99.90;;;;;;5058827;28;19924;-86
2021/12/08 03:35:52;;;;;;;;;;;1.40;99.90;;;;;;5077544;28;19936;-85
2021/12/08 03:38:20;;;;;;;;;;;1.40;99.90;;;;;;5061888;28;19909;-86
2021/12/08 03:40:48;;;;;;;;;;;1.30;99.90;;;;;;5098580;28;19933;-87
2021/12/08 03:43:17;;;;;;;;;;;1.40;99.90;;;;;;5079453;28;19909;-87
2021/12/08 03:45:47;;;;;;;;;;;1.40;99.90;;;;;;5062899;28;19924;-87
2021/12/08 03:48:18;;;;;;;;;;;1.40;99.90;;;;;;5068772;28;20027;-87
2021/12/08 03:50:46;;;;;;;;;;;1.40;99.90;;;;;;5094238;28;19912;-87
2021/12/08 03:53:16;;;;;;;;;;;1.40;99.90;;;;;;5094909;28;20098;-87
2021/12/08 03:55:44;;;;;;;;;;;1.40;99.90;;;;;;5076143;28;19930;-86
2021/12/08 03:58:11;;;;;;;;;;;1.40;99.90;;;;;;5091703;28;19956;-86
2021/12/08 04:00:41;;;;;;;;;;;1.40;99.90;;;;;;5076636;28;19912;-85
2021/12/08 04:03:08;;;;;;;;;;;1.40;99.90;;;;;;5085168;28;19968;-86
2021/12/08 04:05:45;;;;;;;;;;;1.40;99.90;;;;;;5063217;28;19909;-86
2021/12/08 04:08:18;;;;;;;;;;;1.40;99.90;;;;;;5078898;28;19913;-86
2021/12/08 04:10:47;;;;;;;;;;;1.40;99.90;;;;;;5096425;28;21108;-85
2021/12/08 04:13:15;;;;;;;;;;;1.40;99.90;;;;;;5100870;28;19912;-87
2021/12/08 04:15:44;;;;;;;;;;;1.40;99.90;;;;;;5065123;28;19972;-86
2021/12/08 04:18:11;;;;;;;;;;;1.40;99.90;;;;;;5081856;28;19933;-86
2021/12/08 04:20:40;;;;;;;;;;;1.40;99.90;;;;;;5074468;28;19948;-88
2021/12/08 04:23:08;;;;;;;;;;;1.40;99.90;;;;;;5069859;28;19912;-85
2021/12/08 04:25:38;;;;;;;;;;;1.40;99.90;;;;;;5059944;28;19936;-87
2021/12/08 04:28:10;;;;;;;;;;;1.40;99.90;;;;;;5074670;28;19972;-84
2021/12/08 04:30:39;;;;;;;;;;;1.40;99.90;;;;;;5063897;28;19948;-86
2021/12/08 04:33:08;;;;;;;;;;;1.40;99.90;;;;;;5076302;28;19917;-87
2021/12/08 04:35:36;;;;;;;;;;;1.40;99.90;;;;;;5063419;28;19985;-86
2021/12/08 04:38:07;;;;;;;;;;;1.40;99.90;;;;;;5066071;28;19951;-86
2021/12/08 04:40:43;;;;;;;;;;;1.40;99.90;;;;;;5080469;28;19933;-86
2021/12/08 04:43:17;;;;;;;;;;;1.40;99.90;;;;;;5060136;28;19909;-84
2021/12/08 04:45:55;;;;;;;;;;;1.40;99.90;;;;;;5094052;28;19929;-87
2021/12/08 04:48:38;;;;;;;;;;;1.40;99.90;;;;;;5070406;28;19925;-86
2021/12/08 05:03:22;;;;;;;;;;;1.40;99.90;;;;;;5239180;22;20011;-86
2021/12/08 05:08:41;;;;;;;;;;;1.40;99.90;;;;;;5110620;28;19954;-85
2021/12/08 05:11:10;;;;;;;;;;;1.40;99.90;;;;;;5124079;28;19934;-85
2021/12/08 05:13:38;;;;;;;;;;;1.40;99.90;;;;;;5125824;28;19912;-85
2021/12/08 05:16:05;;;;;;;;;;;1.40;99.90;;;;;;5129528;28;19932;-84
2021/12/08 05:18:34;;;;;;;;;;;1.40;99.90;;;;;;5109930;28;19955;-84
2021/12/08 05:21:06;;;;;;;;;;;1.40;99.90;;;;;;5115305;28;19912;-85
2021/12/08 05:23:34;;;;;;;;;;;1.40;99.90;;;;;;5110461;28;19932;-86
2021/12/08 05:26:02;;;;;;;;;;;1.50;99.90;;;;;;5128902;28;20131;-85
2021/12/08 05:28:30;;;;;;;;;;;1.40;99.90;;;;;;5125544;28;20720;-85
2021/12/08 05:30:59;;;;;;;;;;;1.40;99.90;;;;;;5127719;28;19942;-85
2021/12/08 05:33:27;;;;;;;;;;;1.40;99.90;;;;;;5128007;28;19934;-84
2021/12/08 05:35:55;;;;;;;;;;;1.40;99.90;;;;;;5103025;28;20127;-85
2021/12/08 05:38:24;;;;;;;;;;;1.50;99.90;;;;;;5128346;28;19908;-85
2021/12/08 05:40:53;;;;;;;;;;;1.50;99.90;;;;;;5122236;28;19938;-84
2021/12/08 05:43:21;;;;;;;;;;;1.40;99.90;;;;;;5131158;28;19968;-87
2021/12/08 05:45:54;;;;;;;;;;;1.50;99.90;;;;;;5130504;28;19929;-84
2021/12/08 05:48:22;;;;;;;;;;;1.40;99.90;;;;;;5120847;28;19908;-84
2021/12/08 05:50:50;;;;;;;;;;;1.50;99.90;;;;;;5122353;28;19935;-85
2021/12/08 05:53:18;;;;;;;;;;;1.50;99.90;;;;;;5126392;28;19916;-82
2021/12/08 05:55:47;;;;;;;;;;;1.40;99.90;;;;;;5108838;28;19916;-85
2021/12/08 05:58:15;;;;;;;;;;;1.40;99.90;;;;;;5112104;28;19928;-84
2021/12/08 06:00:46;;;;;;;;;;;1.50;99.90;;;;;;5127838;28;20745;-83
2021/12/08 06:03:14;;;;;;;;;;;1.50;99.90;;;;;;5113381;28;19908;-84
2021/12/08 06:05:44;;;;;;;;;;;1.50;99.90;;;;;;5123769;28;20205;-85
2021/12/08 06:08:11;;;;;;;;;;;1.50;99.90;;;;;;5124426;28;19914;-87
2021/12/08 06:10:39;;;;;;;;;;;1.50;99.90;;;;;;5124407;28;19913;-85
2021/12/08 06:13:09;;;;;;;;;;;1.50;99.90;;;;;;5125100;28;19991;-84
2021/12/08 06:15:36;;;;;;;;;;;1.50;99.90;;;;;;5102371;22;19920;-75
2021/12/08 06:18:03;;;;;;;;;;;1.50;99.90;;;;;;5031165;28;20393;-76
2021/12/08 06:20:30;;;;;;;;;;;1.50;99.90;;;;;;5047776;28;19932;-76
2021/12/08 06:22:57;;;;;;;;;;;1.50;99.90;;;;;;5038503;28;19925;-76
2021/12/08 06:25:25;;;;;;;;;;;1.50;99.90;;;;;;5046758;28;19932;-76
2021/12/08 06:27:52;;;;;;;;;;;1.50;99.90;;;;;;5049306;28;19991;-76
2021/12/08 06:30:21;;;;;;;;;;;1.50;99.90;;;;;;5051208;28;19929;-75
2021/12/08 06:32:49;;;;;;;;;;;1.50;99.90;;;;;;5026002;28;20470;-76
2021/12/08 06:35:20;;;;;;;;;;;1.50;99.90;;;;;;5052135;28;19998;-76
2021/12/08 06:37:47;;;;;;;;;;;1.50;99.90;;;;;;5054013;28;20037;-75
2021/12/08 06:40:16;;;;;;;;;;;1.50;99.90;;;;;;5048684;28;19939;-76
2021/12/08 06:42:45;;;;;;;;;;;1.50;99.90;;;;;;5038138;28;19936;-76
2021/12/08 06:45:14;;;;;;;;;;;1.50;99.90;;;;;;5049336;28;19932;-76
2021/12/08 06:47:43;;;;;;;;;;;1.50;99.90;;;;;;5052709;28;19982;-76
2021/12/08 06:50:14;;;;;;;;;;;1.50;99.90;;;;;;5044505;28;20011;-75
2021/12/08 06:52:41;;;;;;;;;;;1.50;99.90;;;;;;5044254;28;19936;-76
2021/12/08 06:55:10;;;;;;;;;;;1.50;99.90;;;;;;5048611;28;19933;-75
2021/12/08 06:57:38;;;;;;;;;;;1.50;99.90;;;;;;5046227;28;19929;-76
2021/12/08 07:00:18;;;;;;;;;;;1.40;99.90;;;;;;5048563;28;19925;-76
2021/12/08 07:03:03;;;;;;;;;;;1.50;99.90;;;;;;5048896;28;19929;-75
2021/12/08 07:05:42;;;;;;;;;;;1.50;99.90;;;;;;5030315;28;20345;-76
2021/12/08 07:08:10;;;;;;;;;;;1.50;99.90;;;;;;5034158;28;19931;-76
2021/12/08 07:10:40;;;;;;;;;;;1.50;99.90;;;;;;5043248;28;19924;-75
2021/12/08 07:13:10;;;;;;;;;;;1.50;99.90;;;;;;5033579;28;20338;-76
2021/12/08 07:15:39;;;;;;;;;;;1.50;99.90;;;;;;5046896;28;20516;-76
2021/12/08 07:18:09;;;;;;;;;;;1.50;99.90;;;;;;5032964;28;19933;-76
2021/12/08 07:20:43;;;;;;;;;;;1.50;99.90;;;;;;5054479;28;19932;-76
2021/12/08 07:23:12;;;;;;;;;;;1.50;99.90;;;;;;5049785;28;19924;-75
2021/12/08 07:25:40;;;;;;;;;;;1.50;99.90;;;;;;5028075;28;19924;-76
2021/12/08 07:28:07;;;;;;;;;;;1.50;99.90;;;;;;5047199;28;19987;-76
2021/12/08 07:30:36;;;;;;;;;;;1.50;99.90;;;;;;5052303;28;19986;-76
2021/12/08 07:33:04;;;;;;;;;;;1.50;99.90;;;;;;5029903;28;20390;-76
2021/12/08 07:35:35;;;;;;;;;;;1.50;99.90;;;;;;5052948;28;19939;-76
2021/12/08 07:38:02;;;;;;;;;;;1.50;99.90;;;;;;5049293;28;19933;-76
2021/12/08 07:40:31;;;;;;;;;;;1.50;99.90;;;;;;5045443;28;20390;-76
2021/12/08 07:42:59;;;;;;;;;;;1.60;99.90;;;;;;5036838;28;19929;-76
2021/12/08 07:45:30;;;;;;;;;;;1.50;99.90;;;;;;5052466;28;20387;-76
2021/12/08 07:47:57;;;;;;;;;;;1.50;99.90;;;;;;5025909;28;19933;-75
2021/12/08 07:50:26;;;;;;;;;;;1.50;99.90;;;;;;5038609;28;19963;-76
2021/12/08 07:52:55;;;;;;;;;;;1.50;99.90;;;;;;5043800;28;19960;-75
2021/12/08 07:55:24;;;;;;;;;;;1.50;99.90;;;;;;5028450;28;19925;-75
2021/12/08 07:57:51;;;;;;;;;;;1.50;99.90;;;;;;5049140;28;19998;-75
2021/12/08 08:00:20;;;;;;;;;;;1.60;99.90;;;;;;5026211;28;19925;-76
2021/12/08 08:02:48;;;;;;;;;;;1.60;99.90;;;;;;5021374;28;20012;-76
2021/12/08 08:05:15;;;;;;;;;;;1.50;99.90;;;;;;5041772;28;20339;-76
2021/12/08 08:07:43;;;;;;;;;;;1.60;99.90;;;;;;5045575;28;20025;-76
2021/12/08 08:10:15;;;;;;;;;;;1.60;99.90;;;;;;5045540;28;19936;-76
2021/12/08 08:12:43;;;;;;;;;;;1.60;99.90;;;;;;5046104;28;19924;-76
2021/12/08 08:15:14;;;;;;;;;;;1.60;99.90;;;;;;5037420;28;20402;-77
2021/12/08 08:17:44;;;;;;;;;;;1.60;99.90;;;;;;5045999;28;19931;-76
2021/12/08 08:20:15;;;;;;;;;;;1.60;99.90;;;;;;5028093;28;20024;-76
2021/12/08 08:22:42;;;;;;;;;;;1.60;99.90;;;;;;5045935;28;19948;-75
2021/12/08 08:25:13;;;;;;;;;;;1.60;99.90;;;;;;5028104;28;19925;-76
2021/12/08 08:27:41;;;;;;;;;;;1.60;99.90;;;;;;5046301;28;19924;-76
2021/12/08 08:30:09;;;;;;;;;;;1.60;99.90;;;;;;5032379;28;19925;-75
2021/12/08 08:32:38;;;;;;;;;;;1.60;99.90;;;;;;5045431;28;19932;-76
2021/12/08 08:35:09;;;;;;;;;;;1.60;99.90;;;;;;5026390;28;20335;-76
2021/12/08 08:37:36;;;;;;;;;;;1.60;99.90;;;;;;5040824;28;19986;-76
2021/12/08 08:40:06;;;;;;;;;;;1.60;99.90;;;;;;5043754;28;20294;-76
2021/12/08 08:42:34;;;;;;;;;;;1.60;99.90;;;;;;5047665;28;19971;-76
2021/12/08 08:45:05;;;;;;;;;;;1.60;99.90;;;;;;5022950;28;19933;-76
2021/12/08 08:47:34;;;;;;;;;;;1.60;99.90;;;;;;5023136;28;20601;-75
2021/12/08 08:50:01;;;;;;;;;;;1.60;99.90;;;;;;5024340;28;19925;-76
2021/12/08 08:52:31;;;;;;;;;;;1.60;99.90;;;;;;5046917;28;19924;-75
2021/12/08 08:55:00;;;;;;;;;;;1.60;99.90;;;;;;5025560;28;20012;-75
2021/12/08 08:57:29;;;;;;;;;;;1.60;99.90;;;;;;5046767;28;19931;-76
2021/12/08 08:59:58;;;;;;;;;;;1.60;99.90;;;;;;5033040;28;19968;-76
2021/12/08 09:02:29;;;;;;;;;;;1.60;99.90;;;;;;5028180;28;19925;-75
2021/12/08 09:04:58;;;;;;;;;;;1.70;99.90;;;;;;5047347;28;19936;-76
2021/12/08 09:07:26;;;;;;;;;;;1.60;99.90;;;;;;5048545;28;19925;-75
2021/12/08 09:09:54;;;;;;;;;;;1.70;99.90;;;;;;5042058;28;19925;-75
2021/12/08 09:12:24;;;;;;;;;;;1.70;99.90;;;;;;5046530;28;20392;-76
2021/12/08 09:14:53;;;;;;;;;;;1.60;99.90;;;;;;5048468;28;19948;-75
2021/12/08 09:17:21;;;;;;;;;;;1.70;99.90;;;;;;5031562;28;20227;-76
2021/12/08 09:19:58;;;;;;;;;;;1.70;99.90;;;;;;5028415;28;20394;-76
2021/12/08 09:22:29;;;;;;;;;;;1.70;99.90;;;;;;5029897;28;19931;-76
2021/12/08 09:24:58;;;;;;;;;;;1.70;99.90;;;;;;5024675;28;20047;-76
2021/12/08 09:27:28;;;;;;;;;;;1.70;99.90;;;;;;5031133;28;20142;-76
2021/12/08 09:29:58;;;;;;;;;;;1.70;99.90;;;;;;5044441;28;19925;-76
2021/12/08 09:35:06;;;;;;;;;;;1.70;99.90;;;;;;5089055;22;19931;-77
2021/12/08 09:37:35;;;;;;;;;;;1.70;99.90;;;;;;5061275;28;20027;-77
2021/12/08 09:40:11;;;;;;;;;;;1.70;99.90;;;;;;5055408;28;20023;-77
2021/12/08 09:42:41;;;;;;;;;;;1.70;99.90;;;;;;5062530;28;20388;-77
2021/12/08 09:45:12;;;;;;;;;;;1.70;99.90;;;;;;5078257;28;20019;-77
2021/12/08 09:47:39;;;;;;;;;;;1.70;99.90;;;;;;5094416;28;19927;-77
2021/12/08 09:50:09;;;;;;;;;;;1.70;99.90;;;;;;5086339;28;20413;-77
2021/12/08 09:52:36;;;;;;;;;;;1.70;99.90;;;;;;5063990;28;19936;-77
2021/12/08 09:55:05;;;;;;;;;;;1.70;99.90;;;;;;5094193;28;19949;-77
2021/12/08 09:57:32;;;;;;;;;;;1.70;99.90;;;;;;5075259;28;20103;-77
2021/12/08 09:59:59;;;;;;;;;;;1.80;99.90;;;;;;5072314;28;19938;-77
2021/12/08 10:02:31;;;;;;;;;;;1.80;99.90;;;;;;5068158;28;20070;-77
2021/12/08 10:04:59;;;;;;;;;;;1.80;99.90;;;;;;5064343;28;19932;-77
2021/12/08 10:07:28;;;;;;;;;;;1.80;99.90;;;;;;5071579;28;19934;-77
2021/12/08 10:09:56;;;;;;;;;;;1.80;99.90;;;;;;5082775;28;19928;-77
2021/12/08 10:12:23;;;;;;;;;;;1.80;99.90;;;;;;5090554;28;20377;-77
2021/12/08 10:14:50;;;;;;;;;;;1.80;99.90;;;;;;5091167;28;19932;-77
2021/12/08 10:17:18;;;;;;;;;;;1.80;99.90;;;;;;5073223;28;20025;-78
2021/12/08 10:19:46;;;;;;;;;;;1.80;99.90;;;;;;5091275;28;19969;-77
2021/12/08 10:22:18;;;;;;;;;;;1.80;99.90;;;;;;5092112;28;19985;-77
2021/12/08 10:25:01;;;;;;;;;;;1.80;99.90;;;;;;5093254;28;19924;-77
2021/12/08 10:27:28;;;;;;;;;;;1.80;99.90;;;;;;5077371;28;19924;-77
2021/12/08 10:30:15;;;;;;;;;;;1.80;99.90;;;;;;5073549;28;20004;-77
2021/12/08 10:32:42;;;;;;;;;;;1.80;99.90;;;;;;5092970;28;19931;-78
2021/12/08 10:35:38;;;;;;;;;;;1.80;99.90;;;;;;5087908;28;20321;-77
2021/12/08 10:38:05;;;;;;;;;;;1.80;99.90;;;;;;5091911;28;19925;-77
2021/12/08 10:40:34;;;;;;;;;;;1.80;99.90;;;;;;5080506;28;19924;-77
2021/12/08 10:43:12;;;;;;;;;;;1.80;99.90;;;;;;5089040;28;20382;-77
2021/12/08 10:45:39;;;;;;;;;;;1.90;99.90;;;;;;5091234;28;20019;-77
2021/12/08 10:48:08;;;;;;;;;;;1.80;99.90;;;;;;5067090;28;20248;-77
2021/12/08 10:56:08;;;;;;;;;;;1.80;99.90;;;;;;5094628;28;19920;-77
2021/12/08 10:58:39;;;;;;;;;;;1.90;99.90;;;;;;5090174;28;19931;-77
2021/12/08 11:01:07;;;;;;;;;;;1.80;99.90;;;;;;5071355;28;19935;-77
2021/12/08 11:03:36;;;;;;;;;;;1.80;99.90;;;;;;5091830;28;19924;-77
2021/12/08 11:06:04;;;;;;;;;;;1.90;99.90;;;;;;5071943;28;20393;-77
2021/12/08 11:08:32;;;;;;;;;;;1.90;99.90;;;;;;5090930;28;20023;-77
2021/12/08 11:11:01;;;;;;;;;;;1.90;99.90;;;;;;5087879;28;19924;-77
2021/12/08 11:13:30;;;;;;;;;;;1.90;99.90;;;;;;5085377;28;19924;-77
2021/12/08 11:16:02;;;;;;;;;;;1.90;99.90;;;;;;5090974;28;19928;-77
2021/12/08 11:18:30;;;;;;;;;;;1.90;99.90;;;;;;5094425;28;19971;-77
2021/12/08 11:20:59;;;;;;;;;;;1.90;99.90;;;;;;5087335;28;19947;-77
2021/12/08 11:23:41;;;;;;;;;;;1.90;99.90;;;;;;5086378;28;20728;-77
2021/12/08 11:26:12;;;;;;;;;;;1.90;99.90;;;;;;5085091;28;19928;-77
2021/12/08 11:28:40;;;;;;;;;;;1.90;99.90;;;;;;5089702;28;19928;-77
2021/12/08 11:31:09;;;;;;;;;;;1.90;99.90;;;;;;5083269;28;19947;-77
2021/12/08 11:33:41;;;;;;;;;;;1.90;99.90;;;;;;5091407;28;20439;-77
2021/12/08 11:36:10;;;;;;;;;;;1.90;99.90;;;;;;5080868;28;19933;-77
2021/12/08 11:38:40;;;;;;;;;;;1.90;99.90;;;;;;5089109;28;19924;-77
2021/12/08 11:41:21;;;;;;;;;;;1.90;99.90;;;;;;5093479;28;20044;-77
2021/12/08 11:43:52;;;;;;;;;;;1.90;99.90;;;;;;5087808;28;19989;-77
2021/12/08 11:46:20;;;;;;;;;;;1.90;99.90;;;;;;5088662;28;19978;-77
2021/12/08 11:49:05;;;;;;;;;;;1.90;99.90;;;;;;5074990;28;20484;-77
2021/12/08 11:51:35;;;;;;;;;;;1.90;99.90;;;;;;5092329;28;19960;-77
2021/12/08 11:54:03;;;;;;;;;;;1.90;99.90;;;;;;5083855;28;19947;-77
2021/12/08 11:56:31;;;;;;;;;;;1.90;99.90;;;;;;5089369;28;19924;-77
2021/12/08 11:59:00;;;;;;;;;;;2.00;99.90;;;;;;5073219;28;20007;-77
2021/12/08 12:01:27;;;;;;;;;;;2.00;99.90;;;;;;5090461;28;20489;-77
2021/12/08 12:03:55;;;;;;;;;;;2.00;99.90;;;;;;5088600;28;19924;-77
2021/12/08 12:06:27;;;;;;;;;;;2.00;99.90;;;;;;5074817;28;19924;-77
2021/12/08 12:08:56;;;;;;;;;;;1.90;99.90;;;;;;5081175;28;19931;-77
2021/12/08 12:11:24;;;;;;;;;;;2.00;99.90;;;;;;5080227;28;19924;-77
2021/12/08 12:13:51;;;;;;;;;;;2.00;99.90;;;;;;5086691;28;19927;-77
2021/12/08 12:16:20;;;;;;;;;;;2.00;99.90;;;;;;5083013;28;20423;-77
2021/12/08 12:18:47;;;;;;;;;;;2.00;99.90;;;;;;5092817;28;19931;-77
2021/12/08 12:21:20;;;;;;;;;;;2.00;99.90;;;;;;5082585;28;20385;-77
2021/12/08 12:23:52;;;;;;;;;;;2.00;99.90;;;;;;5076756;28;19932;-77
2021/12/08 12:26:24;;;;;;;;;;;2.00;99.90;;;;;;5094089;28;19924;-77
2021/12/08 12:29:12;;;;;;;;;;;2.00;99.90;;;;;;5091858;28;20397;-78
2021/12/08 12:31:45;;;;;;;;;;;2.00;99.90;;;;;;5089091;28;19974;-77
2021/12/08 12:34:23;;;;;;;;;;;2.00;99.90;;;;;;5074918;28;20329;-77
2021/12/08 12:36:51;;;;;;;;;;;2.00;99.90;;;;;;5095177;28;19924;-77
2021/12/08 12:39:19;;;;;;;;;;;2.00;99.90;;;;;;5071569;28;20428;-77
2021/12/08 12:41:57;;;;;;;;;;;2.10;99.90;;;;;;5089959;28;19928;-77
2021/12/08 12:44:25;;;;;;;;;;;2.00;99.90;;;;;;5099517;28;20401;-77
2021/12/08 12:47:15;;;;;;;;;;;2.00;99.90;;;;;;5089956;28;19924;-77
2021/12/08 12:49:43;;;;;;;;;;;2.00;99.90;;;;;;5070443;28;20030;-77
2021/12/08 12:52:11;;;;;;;;;;;2.00;99.90;;;;;;5075313;28;20050;-77
2021/12/08 12:54:39;;;;;;;;;;;2.00;99.90;;;;;;5091364;28;19987;-77
2021/12/08 12:57:07;;;;;;;;;;;2.00;99.90;;;;;;5069354;28;19924;-77
2021/12/08 12:59:46;;;;;;;;;;;2.00;99.90;;;;;;5070745;28;19924;-77
2021/12/08 13:02:20;;;;;;;;;;;2.00;99.90;;;;;;5081818;28;19924;-77
2021/12/08 13:04:51;;;;;;;;;;;2.00;99.90;;;;;;5089953;28;20027;-77
2021/12/08 13:07:18;;;;;;;;;;;2.00;99.90;;;;;;5068494;28;20379;-77
2021/12/08 13:09:48;;;;;;;;;;;2.10;99.90;;;;;;5091921;28;19963;-77
2021/12/08 13:12:16;;;;;;;;;;;2.10;99.90;;;;;;5088608;28;19966;-77
2021/12/08 13:14:43;;;;;;;;;;;2.10;99.90;;;;;;5088217;28;19974;-77
2021/12/08 13:17:23;;;;;;;;;;;2.10;99.90;;;;;;5090453;28;20283;-77
2021/12/08 13:19:52;;;;;;;;;;;2.10;99.90;;;;;;5072159;28;19933;-77
2021/12/08 13:22:51;;;;;;;;;;;2.10;99.90;;;;;;5081505;28;19975;-77
2021/12/08 13:25:44;;;;;;;;;;;2.10;99.90;;;;;;4966960;28;20444;-77
2021/12/08 13:28:14;;;;;;;;;;;2.10;99.90;;;;;;5096500;28;19924;-77
2021/12/08 13:30:45;;;;;;;;;;;2.10;99.90;;;;;;5072974;28;19924;-77
2021/12/08 13:33:28;;;;;;;;;;;2.10;99.90;;;;;;5078936;28;19927;-77
2021/12/08 13:35:55;;;;;;;;;;;2.10;99.90;;;;;;5062139;28;19928;-76
2021/12/08 13:38:22;;;;;;;;;;;2.10;99.90;;;;;;5086925;28;20410;-77
2021/12/08 13:40:50;;;;;;;;;;;2.10;99.90;;;;;;5098278;22;19960;-88
2021/12/08 13:43:38;;;;;;;;;;;2.10;99.90;;;;;;5107695;28;19924;-86
2021/12/08 13:46:05;;;;;;;;;;;2.10;99.90;;;;;;5075744;28;19920;-85
2021/12/08 13:48:34;;;;;;;;;;;2.10;99.90;;;;;;5073396;28;19931;-87
2021/12/08 13:57:27;;;;;;;;;;;2.10;99.90;;;;;;5306678;22;19919;-88
2021/12/08 13:59:55;;;;;;;;;;;2.10;99.90;;;;;;5106351;28;19995;-87
2021/12/08 14:02:23;;;;;;;;;;;2.20;99.90;;;;;;5092345;28;19916;-87
2021/12/08 14:04:59;;;;;;;;;;;2.10;99.90;;;;;;5086022;28;19925;-89
2021/12/08 14:07:26;;;;;;;;;;;2.20;99.90;;;;;;5110981;28;20334;-88
2021/12/08 14:09:55;;;;;;;;;;;2.20;99.90;;;;;;5089029;28;19924;-85
2021/12/08 14:12:22;;;;;;;;;;;2.20;99.90;;;;;;5096589;28;19942;-89
2021/12/08 14:14:54;;;;;;;;;;;2.30;99.90;;;;;;5114251;28;19943;-87
2021/12/08 14:17:26;;;;;;;;;;;2.20;99.90;;;;;;5118388;28;19927;-86
2021/12/08 14:19:53;;;;;;;;;;;2.20;99.90;;;;;;5108976;28;19931;-85
2021/12/08 14:22:22;;;;;;;;;;;2.20;99.90;;;;;;5090575;28;19928;-87
2021/12/08 14:24:55;;;;;;;;;;;2.20;99.90;;;;;;5094979;28;19935;-86
2021/12/08 14:27:29;;;;;;;;;;;2.20;99.90;;;;;;5098183;28;19928;-85
2021/12/08 14:29:57;;;;;;;;;;;2.20;99.90;;;;;;5095181;28;19908;-86
2021/12/08 14:32:24;;;;;;;;;;;2.20;99.90;;;;;;5104687;28;19924;-87
2021/12/08 14:34:52;;;;;;;;;;;2.20;99.90;;;;;;5090831;28;19932;-88
2021/12/08 14:37:20;;;;;;;;;;;2.20;99.90;;;;;;5110820;28;19970;-86
2021/12/08 14:39:50;;;;;;;;;;;2.20;99.90;;;;;;5102189;28;19955;-86
2021/12/08 14:42:19;;;;;;;;;;;2.20;99.90;;;;;;5114274;28;19938;-86
2021/12/08 14:44:50;;;;;;;;;;;2.10;99.90;;;;;;5087366;28;19935;-86
2021/12/08 14:47:19;;;;;;;;;;;2.20;99.90;;;;;;5099013;28;19950;-87
2021/12/08 14:49:48;;;;;;;;;;;2.20;99.90;;;;;;5085199;28;19995;-86
2021/12/08 14:52:17;;;;;;;;;;;2.20;99.90;;;;;;5100108;28;19971;-85
2021/12/08 14:54:45;;;;;;;;;;;2.20;99.90;;;;;;5096405;28;19934;-84
2021/12/08 14:57:15;;;;;;;;;;;2.20;99.90;;;;;;5106683;28;19964;-86
2021/12/08 14:59:46;;;;;;;;;;;2.20;99.90;;;;;;5098514;28;19912;-86
2021/12/08 15:02:14;;;;;;;;;;;2.20;99.90;;;;;;5110484;28;19935;-86
2021/12/08 15:04:41;;;;;;;;;;;2.20;99.90;;;;;;5113447;28;19924;-85
2021/12/08 15:07:09;;;;;;;;;;;2.20;99.90;;;;;;5106035;28;19928;-87
2021/12/08 15:09:36;;;;;;;;;;;2.20;99.90;;;;;;5113129;28;19912;-84
2021/12/08 15:12:05;;;;;;;;;;;2.20;99.90;;;;;;5101328;28;21287;-86
2021/12/08 15:14:40;;;;;;;;;;;2.20;99.90;;;;;;5113513;28;19930;-85
2021/12/08 15:17:07;;;;;;;;;;;2.30;99.90;;;;;;5107403;28;19927;-85
2021/12/08 15:19:34;;;;;;;;;;;2.20;99.90;;;;;;5103650;28;19963;-85
2021/12/08 15:22:05;;;;;;;;;;;2.20;99.90;;;;;;5114988;28;19912;-84
2021/12/08 15:24:32;;;;;;;;;;;2.20;99.90;;;;;;5094496;28;19958;-85
2021/12/08 15:27:10;;;;;;;;;;;2.20;99.90;;;;;;5114097;28;19974;-85
2021/12/08 15:29:39;;;;;;;;;;;2.30;99.90;;;;;;5092736;28;19920;-84
2021/12/08 15:32:12;;;;;;;;;;;2.20;99.90;;;;;;5116401;28;19947;-86
2021/12/08 15:34:39;;;;;;;;;;;2.20;99.90;;;;;;5094720;28;19928;-85
2021/12/08 15:37:07;;;;;;;;;;;2.20;99.90;;;;;;5081566;28;19982;-86
2021/12/08 15:39:35;;;;;;;;;;;2.20;99.90;;;;;;5099519;28;20005;-85
2021/12/08 15:42:03;;;;;;;;;;;2.20;99.90;;;;;;5112069;28;19912;-86
2021/12/08 15:44:32;;;;;;;;;;;2.20;99.90;;;;;;5097798;28;19924;-85
2021/12/08 15:47:01;;;;;;;;;;;2.20;99.90;;;;;;5112355;28;19916;-85
2021/12/08 15:49:28;;;;;;;;;;;2.20;99.90;;;;;;5102509;28;19998;-84
2021/12/08 15:52:02;;;;;;;;;;;2.20;99.90;;;;;;5104596;28;20075;-87
2021/12/08 15:54:29;;;;;;;;;;;2.30;99.90;;;;;;5088350;28;19966;-86
2021/12/08 15:57:01;;;;;;;;;;;2.20;99.90;;;;;;5101790;28;19912;-85
2021/12/08 15:59:30;;;;;;;;;;;2.20;99.90;;;;;;5098648;28;19974;-84
2021/12/08 16:01:58;;;;;;;;;;;2.20;99.90;;;;;;5089227;28;20326;-84
2021/12/08 16:04:27;;;;;;;;;;;2.20;99.90;;;;;;5101285;28;20208;-86
2021/12/08 16:06:55;;;;;;;;;;;2.20;99.90;;;;;;5106206;28;19983;-84
2021/12/08 16:09:24;;;;;;;;;;;2.30;99.90;;;;;;5100821;28;19928;-85
2021/12/08 16:11:52;;;;;;;;;;;2.20;99.90;;;;;;5102241;28;19924;-84
2021/12/08 16:14:24;;;;;;;;;;;2.30;99.90;;;;;;5074592;28;19924;-85